Aneta, ND

3:40 PM CST on February 10, 2016 (GMT -0600)
Larimore | | Change Station
CLOSE
Current Station
Personal Weather Station
Location: Larimore, ND
Elevation: 1125 ft
Nearby Weather Stations

Elev 1125 ft 47.91 °N, 97.63 °W | Updated 19 seconds ago

Overcast
Overcast
10.4 °F
Feels Like 2 °F
N
4.7
Wind Variable Wind from NNE

Today
High -- | Low -- °F
--% Chance of Precip.
Yesterday
High -- | Low -- °F
Precip. -- in
Pressure 30.20 in
Visibility 10.0 miles
Clouds Mostly Cloudy 3700 ft
Mostly Cloudy 4400 ft
Overcast 6500 ft
Windchill 2 °F
Dew Point 2 °F
Humidity 68%
Rainfall 0.00 in
Snow Depth Not available.
7:46 AM 5:46 PM
Waxing Crescent, 7% visible
SPECI KRDR 102120Z AUTO 04008KT 10SM BKN037 BKN044 OVC065 M13/M18 A3020 RMK AO2 SNB10E15SNB19E20
Pressure 30.20 in
Visibility 10.0 miles
Clouds Mostly Cloudy 3700 ft
Mostly Cloudy 4400 ft
Overcast 6500 ft
Windchill 2 °F
Dew Point 2 °F
Humidity 68%
Rainfall 0.00 in
Snow Depth Not available.
7:46 AM 5:46 PM
Waxing Crescent, 7% visible
SPECI KRDR 102120Z AUTO 04008KT 10SM BKN037 BKN044 OVC065 M13/M18 A3020 RMK AO2 SNB10E15SNB19E20

10-Day Weather Forecast

Almanac

Astronomy

Feb. 10, 2016 Rise Set
Actual Time
Civil Twilight
Nautical Twilight
Astronomical Twilight
Moon
Length of Visible Light
Length of Day
Tomorrow will be .
, % of the Moon is Illuminated

Today's Extremes

State Highs State Lows

Community

WunderPhotos

Upload Photos

1,891,950 photos uploaded!

WunderBlog® & News

Nearby

Air Quality

  Air Quality AQ Index Pollutant
Not available.

Snow Depth

Station Depth Elevation

Earthquake Activity

City Distance Mag. Time & Date
Minimum magnitude displayed is 2.5.

Coastal Water Temperatures

Place Temperature

Stations

Nearby Weather Stations

Station Location Temp. Windchill Dew Point Humidity Wind Precip. Elev Updated Type
                   

Watches & Warnings

There are currently no watches in effect.